Friday, December 14, 2018, 12:46 PM EST
Back to Local

KRUT, Rutland, Rutland-southern Vermont Regional Airport

Location: North Clarendon, VT, United States Lat: 43.533
Local Time: 12:46 PM EST (17:46 GMT) Lon: -72.95
Time Zone: US/Eastern Elev: 787 ft

Show me the last for .
Show Decoded

2018-12-14 11:56 METAR KRUT 141656Z AUTO 12011G16KT 10SM OVC028 03/M01 A3034 RMK AO2 SLP297
                 T00331006 PNO $ =
2018-12-14 10:56 METAR KRUT 141556Z AUTO 12008KT 10SM OVC028 03/M01 A3040 RMK AO2 SLP319
                 T00281011 PNO $ =
2018-12-14 10:54 METAR KRUT 141554Z AUTO 12008KT 10SM OVC028 03/M01 A3040 RMK AO2 PNO $ =
2018-12-14 09:56 METAR KRUT 141456Z AUTO 14010KT 10SM OVC032 02/M02 A3042 RMK AO2 SLP322 6////
                 T00171017 58001 FZRANO PNO $ =
2018-12-14 08:56 METAR KRUT 141356Z AUTO 14009KT 10SM BKN030 OVC034 01/M02 A3043 RMK AO2 RAB06E16
                 SLP325 T00111022 FZRANO PNO $ =
2018-12-14 07:56 METAR KRUT 141256Z AUTO 13007KT 10SM OVC024 01/M02 A3042 RMK AO2 SLP324
                 T00111022 FZRANO PNO $ =
2018-12-14 06:56 METAR KRUT 141156Z AUTO 13009KT 10SM OVC020 00/M03 A3042 RMK AO2 SLP323 6////
                 7//// T00001028 10000 21017 56008 FZRANO PNO $ =
2018-12-14 05:56 METAR KRUT 141056Z AUTO 11009KT 10SM OVC024 M01/M03 A3042 RMK AO2 SLP325
                 T10061028 FZRANO PNO $ =
2018-12-14 04:56 METAR KRUT 140956Z AUTO 16007KT 10SM OVC022 M01/M03 A3042 RMK AO2 SLP326
                 T10061033 FZRANO PNO $ =
2018-12-14 03:56 METAR KRUT 140856Z AUTO 12009KT 10SM OVC020 M01/M03 A3044 RMK AO2 SLP332 6////
                 T10061033 56006 FZRANO PNO $ =
2018-12-14 02:56 METAR KRUT 140756Z AUTO 13009KT 10SM BKN024 OVC031 M01/M03 A3045 RMK AO2 SLP335
                 T10061033 FZRANO PNO $ =
2018-12-14 02:54 METAR KRUT 140754Z AUTO 13009KT 10SM BKN026 OVC031 M01/M03 A3045 RMK AO2 FZRANO
                 PNO $ =
2018-12-14 01:56 METAR KRUT 140656Z AUTO 14008KT 10SM OVC030 M01/M04 A3046 RMK AO2 SLP338
                 T10111039 FZRANO PNO $ =
2018-12-14 01:40 METAR KRUT 140640Z AUTO 13010KT 10SM FEW023 OVC030 M01/M04 A3046 RMK AO2 FZRANO
                 PNO $ =
2018-12-14 00:56 METAR KRUT 140556Z AUTO 13008KT 10SM SCT023 OVC027 M02/M04 A3047 RMK AO2 SLP342
                 6//// T10171044 11017 21028 58003 FZRANO PNO $ =
2018-12-13 23:56 METAR KRUT 140456Z AUTO 14009KT 10SM OVC021 M02/M05 A3047 RMK AO2 SLP344
                 T10171050 410171156 FZRANO PNO $ =
2018-12-13 22:56 METAR KRUT 140356Z AUTO 14011KT 10SM OVC021 M02/M06 A3048 RMK AO2 SLP342
                 T10221056 FZRANO PNO $ =
2018-12-13 21:56 METAR KRUT 140256Z AUTO 13012KT 10SM OVC021 M03/M06 A3047 RMK AO2 SLP343 6////
                 T10281061 50003 FZRANO PNO $ =
2018-12-13 20:56 METAR KRUT 140156Z AUTO 14008KT 10SM OVC025 M03/M06 A3048 RMK AO2 SLP344
                 T10281061 FZRANO PNO $ =
2018-12-13 19:56 METAR KRUT 140056Z AUTO 15008G16KT 10SM OVC025 M03/M07 A3047 RMK AO2 SLP342
                 T10281067 FZRANO PNO $ =
2018-12-13 18:56 METAR KRUT 132356Z AUTO 12010KT 10SM OVC025 M03/M07 A3047 RMK AO2 SLP342 6////
                 T10281067 11028 21044 50010 FZRANO PNO $ =
2018-12-13 17:56 METAR KRUT 132256Z AUTO 12006KT 10SM OVC025 M03/M08 A3047 RMK AO2 SLP339
                 T10331078 FZRANO PNO $ =
2018-12-13 16:56 METAR KRUT 132156Z AUTO 13010KT 10SM OVC029 M04/M08 A3045 RMK AO2 SLP335
                 T10391078 FZRANO PNO $ =
2018-12-13 16:44 METAR KRUT 132144Z AUTO 13010KT 10SM BKN029 OVC035 M04/M08 A3045 RMK AO2 FZRANO
                 PNO $ =
2018-12-13 15:56 METAR KRUT 132056Z AUTO 12011KT 10SM OVC037 M04/M08 A3044 RMK AO2 SNE08 SLP330
                 6//// T10391083 53007 FZRANO PNO $ =
2018-12-13 14:56 METAR KRUT 131956Z AUTO 12013KT 7SM -SN OVC039 M04/M08 A3042 RMK AO2 SLP327
                 T10441083 FZRANO PNO $ =
2018-12-13 13:56 METAR KRUT 131856Z AUTO 12013KT 9SM -SN SCT037 OVC045 M03/M10 A3042 RMK AO2
                 SNB49 SLP325 T10331100 FZRANO PNO $ =
2018-12-13 12:56 METAR KRUT 131756Z AUTO 11010G18KT 10SM BKN049 M04/M11 A3042 RMK AO2 SLP322
                 6//// T10391106 11039 21094 56006 FZRANO PNO $ =

Support USWX by starting your Amazon purchase here.